Time;durP1;ratioP1;P1;durP2;ratioP2;P2;SDS_P1;SDS_P2;PMS_P1;PMS_P2;Temp;Humidity;BMP_temperature;BMP_pressure;BME280_temperature;BME280_humidity;BME280_pressure;Samples;Min_cycle;Max_cycle;Signal;HPM_P1;HPM_P2
2022/01/30 00:02:05;;;;;;;5.68;2.10;;;;;;;;;;8292057;28;20373;-62
2022/01/30 00:06:05;;;;;;;7.53;2.70;;;;;;;;;;8288320;28;20207;-62
2022/01/30 00:10:10;;;;;;;6.15;1.95;;;;;;;;;;8290664;28;20029;-62
2022/01/30 00:14:13;;;;;;;4.75;2.22;;;;;;;;;;8289970;28;20033;-62
2022/01/30 00:26:32;;;;;;;5.97;2.15;;;;;;;;;;8291214;28;20135;-62
2022/01/30 00:30:35;;;;;;;5.97;2.40;;;;;;;;;;8288065;28;20651;-62
2022/01/30 00:34:35;;;;;;;12.25;2.95;;;;;;;;;;8287480;28;20521;-62
2022/01/30 00:38:35;;;;;;;16.60;3.30;;;;;;;;;;8282434;28;20053;-62
2022/01/30 00:42:35;;;;;;;8.38;2.88;;;;;;;;;;8288935;28;20032;-62
2022/01/30 00:46:38;;;;;;;13.40;3.17;;;;;;;;;;8291988;28;20048;-62
2022/01/30 00:50:38;;;;;;;12.27;3.33;;;;;;;;;;8290635;28;20976;-62
2022/01/30 00:54:39;;;;;;;13.90;3.78;;;;;;;;;;8294035;28;20021;-62
2022/01/30 00:58:39;;;;;;;16.33;3.70;;;;;;;;;;8287542;28;20719;-62
2022/01/30 01:02:39;;;;;;;11.40;3.17;;;;;;;;;;8290942;28;20402;-62
2022/01/30 01:06:40;;;;;;;10.70;2.95;;;;;;;;;;8290244;28;20029;-62
2022/01/30 01:10:47;;;;;;;14.00;3.65;;;;;;;;;;8284548;28;20128;-62
2022/01/30 01:23:37;;;;;;;12.02;3.42;;;;;;;;;;8289075;28;20052;-62
2022/01/30 01:27:37;;;;;;;18.70;3.50;;;;;;;;;;8290602;28;20060;-62
2022/01/30 01:31:37;;;;;;;15.00;3.25;;;;;;;;;;8289765;28;20036;-62
2022/01/30 01:35:37;;;;;;;12.27;3.20;;;;;;;;;;8290548;28;20521;-62
2022/01/30 01:39:38;;;;;;;14.57;3.43;;;;;;;;;;8289360;28;20022;-62
2022/01/30 01:43:38;;;;;;;14.45;3.15;;;;;;;;;;8289382;28;20349;-62
2022/01/30 01:47:38;;;;;;;15.43;3.45;;;;;;;;;;8291060;28;20041;-62
2022/01/30 01:51:38;;;;;;;14.55;3.10;;;;;;;;;;8288749;28;20025;-62
2022/01/30 01:55:40;;;;;;;18.45;3.33;;;;;;;;;;8289779;28;20426;-62
2022/01/30 01:59:40;;;;;;;12.52;2.90;;;;;;;;;;8289589;28;20030;-62
2022/01/30 02:03:43;;;;;;;12.02;2.88;;;;;;;;;;8288151;28;20075;-62
2022/01/30 02:08:13;;;;;;;15.23;2.80;;;;;;;;;;8291523;28;20025;-62
2022/01/30 02:12:13;;;;;;;9.60;2.50;;;;;;;;;;8287017;28;20341;-62
2022/01/30 02:28:47;;;;;;;10.48;2.40;;;;;;;;;;8288862;28;20033;-62
2022/01/30 02:32:48;;;;;;;12.95;2.72;;;;;;;;;;8287851;28;20037;-62
2022/01/30 02:36:51;;;;;;;9.80;2.75;;;;;;;;;;8288828;28;20488;-62
2022/01/30 02:40:55;;;;;;;15.97;3.03;;;;;;;;;;8289408;28;20033;-62
2022/01/30 02:44:59;;;;;;;22.77;3.60;;;;;;;;;;8290578;28;20033;-62
2022/01/30 02:49:12;;;;;;;12.02;2.95;;;;;;;;;;8291879;28;20038;-62
2022/01/30 02:53:12;;;;;;;11.30;2.83;;;;;;;;;;8295386;28;20063;-62
2022/01/30 02:57:12;;;;;;;15.80;2.83;;;;;;;;;;8293138;28;20494;-62
2022/01/30 03:01:12;;;;;;;13.05;2.78;;;;;;;;;;8293620;28;20604;-62
2022/01/30 03:05:12;;;;;;;12.80;2.60;;;;;;;;;;8292350;28;20036;-62
2022/01/30 03:09:13;;;;;;;11.20;2.50;;;;;;;;;;8293885;28;20031;-62
2022/01/30 03:13:13;;;;;;;11.15;2.63;;;;;;;;;;8293710;28;20421;-62
2022/01/30 03:17:13;;;;;;;18.52;3.00;;;;;;;;;;8294060;28;20043;-62
2022/01/30 03:21:14;;;;;;;20.00;3.40;;;;;;;;;;8291555;28;20090;-62
2022/01/30 03:25:14;;;;;;;17.83;3.40;;;;;;;;;;8296903;28;20614;-62
2022/01/30 03:29:14;;;;;;;15.30;3.00;;;;;;;;;;8292340;28;20813;-62
2022/01/30 03:33:15;;;;;;;14.95;3.17;;;;;;;;;;8293518;28;20076;-62
2022/01/30 03:37:15;;;;;;;15.13;2.95;;;;;;;;;;8292848;28;20513;-62
2022/01/30 03:41:15;;;;;;;12.48;2.55;;;;;;;;;;8290373;28;20520;-62
2022/01/30 03:45:15;;;;;;;11.40;2.70;;;;;;;;;;8292126;28;20025;-62
2022/01/30 03:49:16;;;;;;;17.23;3.00;;;;;;;;;;8291292;28;20835;-62
2022/01/30 03:53:16;;;;;;;9.65;2.40;;;;;;;;;;8291144;28;20558;-62
2022/01/30 03:57:16;;;;;;;16.67;2.95;;;;;;;;;;8292188;28;20033;-62
2022/01/30 04:01:16;;;;;;;8.77;2.30;;;;;;;;;;8291999;28;20041;-62
2022/01/30 04:05:16;;;;;;;17.77;2.55;;;;;;;;;;8292108;28;20026;-62
2022/01/30 04:09:17;;;;;;;11.68;2.30;;;;;;;;;;8292024;28;20028;-62
2022/01/30 04:13:17;;;;;;;13.07;2.50;;;;;;;;;;8291284;28;20309;-62
2022/01/30 04:17:21;;;;;;;16.48;3.50;;;;;;;;;;8290880;28;20134;-62
2022/01/30 04:21:21;;;;;;;12.38;2.45;;;;;;;;;;8305895;28;20797;-61
2022/01/30 04:25:21;;;;;;;12.00;2.40;;;;;;;;;;8289805;28;20103;-62
2022/01/30 04:29:22;;;;;;;10.02;2.15;;;;;;;;;;8290256;28;20028;-62
2022/01/30 04:33:22;;;;;;;12.70;2.55;;;;;;;;;;8291870;28;20065;-62
2022/01/30 04:58:35;;;;;;;13.98;2.20;;;;;;;;;;8291036;28;20506;-62
2022/01/30 05:10:57;;;;;;;12.23;2.78;;;;;;;;;;8288626;28;20692;-62
2022/01/30 05:14:58;;;;;;;10.95;2.33;;;;;;;;;;8289620;28;20545;-62
2022/01/30 05:18:58;;;;;;;14.35;2.60;;;;;;;;;;8290825;28;20048;-62
2022/01/30 05:22:58;;;;;;;10.90;2.38;;;;;;;;;;8287228;28;20112;-62
2022/01/30 05:26:59;;;;;;;14.93;2.10;;;;;;;;;;8290460;28;20719;-62
2022/01/30 05:30:59;;;;;;;9.38;1.80;;;;;;;;;;8285199;28;20052;-62
2022/01/30 05:35:00;;;;;;;13.10;2.83;;;;;;;;;;8287259;28;20041;-62
2022/01/30 05:39:04;;;;;;;9.90;2.08;;;;;;;;;;8288117;28;20120;-62
2022/01/30 05:43:05;;;;;;;11.15;1.95;;;;;;;;;;8286558;28;20459;-62
2022/01/30 05:47:09;;;;;;;12.93;2.13;;;;;;;;;;8288734;28;20045;-62
2022/01/30 05:51:10;;;;;;;11.15;2.25;;;;;;;;;;8287200;28;20037;-62
2022/01/30 05:55:10;;;;;;;17.75;3.33;;;;;;;;;;8288629;28;20031;-62
2022/01/30 05:59:10;;;;;;;10.90;2.28;;;;;;;;;;8286963;28;20022;-62
2022/01/30 06:03:10;;;;;;;13.10;2.47;;;;;;;;;;8287051;28;20118;-62
2022/01/30 06:07:11;;;;;;;13.82;2.35;;;;;;;;;;8288585;28;20538;-62
2022/01/30 06:11:12;;;;;;;11.77;2.47;;;;;;;;;;8278713;28;20541;-62
2022/01/30 06:15:13;;;;;;;18.05;2.58;;;;;;;;;;8288317;28;20408;-62
2022/01/30 06:19:13;;;;;;;15.73;2.95;;;;;;;;;;8287334;28;20029;-62
2022/01/30 06:23:13;;;;;;;16.85;2.80;;;;;;;;;;8292699;28;20481;-62
2022/01/30 06:27:13;;;;;;;18.30;2.88;;;;;;;;;;8294852;28;20061;-62
2022/01/30 06:31:15;;;;;;;14.95;2.65;;;;;;;;;;8293360;28;21043;-62
2022/01/30 06:35:15;;;;;;;13.70;2.60;;;;;;;;;;8295733;28;20393;-62
2022/01/30 06:39:15;;;;;;;14.88;2.30;;;;;;;;;;8292129;28;20079;-62
2022/01/30 06:43:16;;;;;;;14.60;2.50;;;;;;;;;;8294780;28;20029;-62
2022/01/30 06:47:16;;;;;;;19.70;2.67;;;;;;;;;;8288590;28;20222;-62
2022/01/30 06:51:16;;;;;;;12.02;2.13;;;;;;;;;;8292056;28;20850;-62
2022/01/30 06:55:17;;;;;;;17.80;2.03;;;;;;;;;;8294584;28;20319;-62
2022/01/30 06:59:17;;;;;;;15.10;2.40;;;;;;;;;;8291903;28;20024;-62
2022/01/30 07:03:17;;;;;;;8.55;2.10;;;;;;;;;;8293484;28;20029;-61
2022/01/30 07:07:17;;;;;;;11.75;2.40;;;;;;;;;;8294624;28;20024;-62
2022/01/30 07:11:17;;;;;;;13.40;2.55;;;;;;;;;;8290798;28;20366;-62
2022/01/30 07:15:18;;;;;;;11.20;2.05;;;;;;;;;;8293743;28;20041;-62
2022/01/30 07:19:18;;;;;;;14.70;2.97;;;;;;;;;;8292053;28;20029;-62
2022/01/30 07:23:18;;;;;;;15.07;2.40;;;;;;;;;;8291148;28;20159;-62
2022/01/30 07:27:18;;;;;;;11.40;2.20;;;;;;;;;;8291648;28;20106;-62
2022/01/30 07:31:18;;;;;;;12.70;2.30;;;;;;;;;;8290805;28;20512;-62
2022/01/30 07:35:19;;;;;;;19.23;2.63;;;;;;;;;;8292171;28;21074;-62
2022/01/30 07:39:19;;;;;;;9.30;1.80;;;;;;;;;;8292326;28;20772;-62
2022/01/30 07:43:19;;;;;;;10.95;1.85;;;;;;;;;;8291125;28;20482;-62
2022/01/30 07:47:20;;;;;;;11.93;2.17;;;;;;;;;;8294492;28;20041;-62
2022/01/30 07:51:21;;;;;;;12.90;2.40;;;;;;;;;;8293864;28;20037;-62
2022/01/30 07:55:21;;;;;;;16.45;2.28;;;;;;;;;;8293532;28;20056;-62
2022/01/30 07:59:21;;;;;;;15.13;2.40;;;;;;;;;;8292250;28;20295;-62
2022/01/30 08:03:22;;;;;;;15.30;2.25;;;;;;;;;;8289615;28;20056;-62
2022/01/30 08:07:23;;;;;;;12.48;1.95;;;;;;;;;;8289247;28;20383;-62
2022/01/30 08:11:23;;;;;;;9.80;1.93;;;;;;;;;;8288269;28;20025;-62
2022/01/30 08:15:23;;;;;;;19.83;2.53;;;;;;;;;;8286485;28;20591;-62
2022/01/30 08:19:25;;;;;;;14.20;2.10;;;;;;;;;;8290211;28;20576;-62
2022/01/30 08:23:28;;;;;;;12.90;1.98;;;;;;;;;;8302479;28;20248;-62
2022/01/30 08:27:28;;;;;;;15.50;2.22;;;;;;;;;;8290634;28;20457;-62
2022/01/30 08:31:28;;;;;;;14.23;2.17;;;;;;;;;;8291437;28;20470;-62
2022/01/30 08:35:29;;;;;;;11.15;1.90;;;;;;;;;;8289968;28;20033;-62
2022/01/30 08:39:29;;;;;;;17.20;2.67;;;;;;;;;;8290700;28;20508;-62
2022/01/30 08:43:30;;;;;;;11.30;1.92;;;;;;;;;;8290989;28;20135;-62
2022/01/30 08:47:30;;;;;;;10.90;2.30;;;;;;;;;;8290617;28;20047;-62
2022/01/30 08:51:31;;;;;;;13.38;3.40;;;;;;;;;;8290301;28;20029;-62
2022/01/30 08:55:33;;;;;;;9.73;2.00;;;;;;;;;;8290185;28;20017;-62
2022/01/30 08:59:33;;;;;;;15.13;1.85;;;;;;;;;;8291873;28;21528;-62
2022/01/30 09:03:33;;;;;;;11.40;2.30;;;;;;;;;;8291611;28;21493;-62
2022/01/30 09:07:34;;;;;;;8.80;2.80;;;;;;;;;;8291435;28;20599;-62
2022/01/30 09:11:34;;;;;;;17.27;2.30;;;;;;;;;;8288741;28;20454;-62
2022/01/30 09:15:39;;;;;;;9.85;1.88;;;;;;;;;;8291075;28;20087;-62
2022/01/30 09:19:40;;;;;;;9.05;1.83;;;;;;;;;;8291141;28;20017;-62
2022/01/30 09:23:40;;;;;;;10.25;1.90;;;;;;;;;;8292162;28;20555;-62
2022/01/30 09:27:40;;;;;;;10.32;2.20;;;;;;;;;;8291090;28;20024;-62
2022/01/30 09:31:41;;;;;;;8.85;1.88;;;;;;;;;;8288847;28;20208;-62
2022/01/30 09:35:41;;;;;;;10.05;1.80;;;;;;;;;;8290048;28;20538;-62
2022/01/30 09:39:42;;;;;;;10.45;2.53;;;;;;;;;;8291730;28;20033;-62
2022/01/30 09:43:43;;;;;;;9.55;1.92;;;;;;;;;;8290411;28;20400;-62
2022/01/30 09:47:45;;;;;;;8.57;1.80;;;;;;;;;;8292819;28;20244;-62
2022/01/30 09:51:45;;;;;;;8.52;1.50;;;;;;;;;;8289846;28;20566;-62
2022/01/30 09:55:46;;;;;;;12.32;2.00;;;;;;;;;;8289614;28;20021;-62
2022/01/30 09:59:46;;;;;;;12.18;2.35;;;;;;;;;;8279943;28;20021;-62
2022/01/30 10:03:49;;;;;;;15.63;2.58;;;;;;;;;;8282065;28;20037;-62
2022/01/30 10:07:53;;;;;;;;;;;;;;;;;;8297830;28;20059;-62
2022/01/30 10:12:10;;;;;;;9.15;1.60;;;;;;;;;;8288411;28;20062;-62
2022/01/30 10:16:10;;;;;;;11.27;2.03;;;;;;;;;;8279343;28;20108;-62
2022/01/30 10:20:12;;;;;;;7.95;2.20;;;;;;;;;;8289143;28;20026;-62
2022/01/30 10:24:25;;;;;;;9.77;2.28;;;;;;;;;;8285561;28;20251;-62
2022/01/30 10:28:27;;;;;;;8.52;2.00;;;;;;;;;;8287825;28;20029;-62
2022/01/30 10:32:28;;;;;;;8.65;2.13;;;;;;;;;;8287197;28;20038;-62
2022/01/30 10:36:30;;;;;;;11.65;2.10;;;;;;;;;;8290856;28;20253;-62
2022/01/30 10:40:36;;;;;;;7.07;1.75;;;;;;;;;;8287205;28;20029;-62
2022/01/30 10:44:45;;;;;;;11.02;2.05;;;;;;;;;;8288854;28;20056;-62
2022/01/30 10:48:54;;;;;;;10.63;1.83;;;;;;;;;;8284277;28;20255;-62
2022/01/30 10:52:56;;;;;;;5.85;2.13;;;;;;;;;;8286218;28;20078;-62
2022/01/30 10:57:03;;;;;;;11.32;2.00;;;;;;;;;;8290031;28;20336;-62
2022/01/30 11:01:03;;;;;;;14.00;2.05;;;;;;;;;;8286113;28;20600;-63
2022/01/30 11:05:06;;;;;;;7.50;1.55;;;;;;;;;;8288075;28;20021;-62
2022/01/30 11:09:11;;;;;;;6.32;1.75;;;;;;;;;;8292485;28;20029;-62
2022/01/30 11:13:14;;;;;;;10.85;2.15;;;;;;;;;;8294003;28;20619;-62
2022/01/30 11:17:22;;;;;;;13.25;2.42;;;;;;;;;;8292134;28;20042;-62
2022/01/30 11:21:22;;;;;;;10.35;1.88;;;;;;;;;;8293334;28;20482;-62
2022/01/30 11:25:22;;;;;;;6.47;1.50;;;;;;;;;;8293193;28;20417;-62
2022/01/30 11:29:23;;;;;;;5.60;1.40;;;;;;;;;;8295591;28;20371;-62
2022/01/30 11:33:24;;;;;;;7.47;1.63;;;;;;;;;;8292229;28;20040;-62
2022/01/30 11:37:25;;;;;;;8.68;1.60;;;;;;;;;;8293761;28;20047;-62
2022/01/30 11:41:26;;;;;;;8.57;1.80;;;;;;;;;;8291861;28;20035;-62
2022/01/30 11:45:31;;;;;;;7.13;1.75;;;;;;;;;;8294823;28;20339;-62
2022/01/30 11:49:42;;;;;;;9.55;1.63;;;;;;;;;;8292646;28;20055;-62
2022/01/30 11:53:42;;;;;;;7.13;1.75;;;;;;;;;;8293432;28;20036;-62
2022/01/30 11:57:42;;;;;;;7.70;1.50;;;;;;;;;;8292026;28;20150;-62
2022/01/30 12:01:42;;;;;;;8.88;2.13;;;;;;;;;;8290979;28;20064;-62
2022/01/30 12:05:43;;;;;;;13.82;2.28;;;;;;;;;;8291564;28;20033;-62
2022/01/30 12:09:43;;;;;;;7.65;1.60;;;;;;;;;;8291919;28;20103;-62
2022/01/30 12:13:44;;;;;;;11.57;2.42;;;;;;;;;;8293124;28;20810;-62
2022/01/30 12:17:45;;;;;;;14.05;2.50;;;;;;;;;;8291689;28;20270;-62
2022/01/30 12:21:45;;;;;;;8.57;2.00;;;;;;;;;;8292145;28;20462;-62
2022/01/30 12:25:52;;;;;;;14.95;1.85;;;;;;;;;;8292456;28;20041;-62
2022/01/30 12:29:52;;;;;;;8.45;1.67;;;;;;;;;;8292703;28;20032;-62
2022/01/30 12:33:58;;;;;;;13.50;2.28;;;;;;;;;;8292330;28;20455;-62
2022/01/30 12:37:59;;;;;;;13.00;1.98;;;;;;;;;;8292801;28;20573;-62
2022/01/30 12:41:59;;;;;;;8.57;1.88;;;;;;;;;;8288249;28;20431;-62
2022/01/30 12:46:06;;;;;;;12.40;2.15;;;;;;;;;;8293121;28;20052;-62
2022/01/30 12:50:09;;;;;;;11.68;2.22;;;;;;;;;;8291280;28;20025;-62
2022/01/30 12:54:10;;;;;;;8.57;1.83;;;;;;;;;;8290399;28;20060;-62
2022/01/30 12:58:12;;;;;;;8.40;1.50;;;;;;;;;;8293609;28;20028;-62
2022/01/30 13:02:12;;;;;;;9.55;1.65;;;;;;;;;;8288581;28;20041;-62
2022/01/30 13:06:12;;;;;;;9.55;1.77;;;;;;;;;;8292561;28;20178;-62
2022/01/30 13:10:13;;;;;;;8.57;1.97;;;;;;;;;;8292514;28;20080;-62
2022/01/30 13:14:14;;;;;;;8.73;1.75;;;;;;;;;;8292028;28;20279;-62
2022/01/30 13:18:14;;;;;;;6.22;1.60;;;;;;;;;;8291803;28;20506;-62
2022/01/30 13:22:25;;;;;;;9.63;2.00;;;;;;;;;;8289763;28;20484;-62
2022/01/30 13:26:34;;;;;;;13.73;2.58;;;;;;;;;;8290651;28;20438;-62
2022/01/30 13:30:34;;;;;;;7.75;1.67;;;;;;;;;;8289213;28;20346;-62
2022/01/30 13:34:35;;;;;;;8.55;1.90;;;;;;;;;;8290306;28;20121;-62
2022/01/30 13:38:41;;;;;;;11.57;1.90;;;;;;;;;;8288447;28;20040;-62
2022/01/30 13:47:03;;;;;;;11.68;2.05;;;;;;;;;;8289126;28;20037;-63
2022/01/30 13:51:05;;;;;;;8.45;1.70;;;;;;;;;;8288093;28;20124;-62
2022/01/30 13:55:07;;;;;;;10.75;2.05;;;;;;;;;;8291240;28;20037;-62
2022/01/30 13:59:07;;;;;;;8.73;2.20;;;;;;;;;;8287927;28;20396;-62
2022/01/30 14:03:09;;;;;;;10.30;2.08;;;;;;;;;;8291720;28;20152;-62
2022/01/30 14:07:23;;;;;;;9.80;2.00;;;;;;;;;;8288671;28;20017;-62
2022/01/30 14:11:25;;;;;;;10.30;2.42;;;;;;;;;;8287994;28;20029;-63
2022/01/30 14:15:25;;;;;;;9.65;1.73;;;;;;;;;;8291394;28;20033;-62
2022/01/30 14:19:27;;;;;;;9.35;1.95;;;;;;;;;;8289138;28;20021;-62
2022/01/30 14:23:34;;;;;;;8.18;1.70;;;;;;;;;;8300011;28;20727;-62
2022/01/30 14:27:35;;;;;;;7.10;1.58;;;;;;;;;;8291082;28;20025;-62
2022/01/30 14:31:55;;;;;;;10.27;1.90;;;;;;;;;;8289902;28;20334;-62
2022/01/30 14:35:56;;;;;;;14.68;2.05;;;;;;;;;;8289712;28;20021;-62
2022/01/30 14:39:57;;;;;;;11.90;1.90;;;;;;;;;;8290084;28;20026;-62
2022/01/30 14:43:57;;;;;;;12.32;1.70;;;;;;;;;;8295005;28;20033;-63
2022/01/30 14:47:58;;;;;;;5.72;1.42;;;;;;;;;;8296118;28;20589;-62
2022/01/30 14:51:58;;;;;;;8.60;1.77;;;;;;;;;;8293654;28;20025;-62
2022/01/30 14:55:59;;;;;;;6.78;1.80;;;;;;;;;;8297649;28;20366;-63
2022/01/30 14:59:59;;;;;;;9.57;1.75;;;;;;;;;;8295624;28;20020;-62
2022/01/30 15:03:59;;;;;;;7.28;1.85;;;;;;;;;;8294541;28;20198;-62
2022/01/30 15:07:59;;;;;;;8.40;1.77;;;;;;;;;;8295089;28;20036;-61
2022/01/30 15:12:00;;;;;;;7.07;1.42;;;;;;;;;;8295076;28;20029;-61
2022/01/30 15:16:06;;;;;;;11.20;2.28;;;;;;;;;;8294456;28;20034;-62
2022/01/30 15:20:12;;;;;;;10.07;1.58;;;;;;;;;;8294846;28;20029;-61
2022/01/30 15:24:12;;;;;;;12.68;1.60;;;;;;;;;;8294740;28;20075;-62
2022/01/30 15:28:12;;;;;;;13.32;2.53;;;;;;;;;;8297392;28;20021;-62
2022/01/30 15:32:12;;;;;;;9.05;1.88;;;;;;;;;;8294835;28;20577;-62
2022/01/30 15:36:13;;;;;;;9.45;1.55;;;;;;;;;;8293812;28;20075;-62
2022/01/30 15:40:14;;;;;;;8.77;1.55;;;;;;;;;;8293907;28;20585;-62
2022/01/30 15:44:17;;;;;;;8.73;1.80;;;;;;;;;;8294291;28;20033;-62
2022/01/30 15:52:37;;;;;;;10.60;1.63;;;;;;;;;;8294416;28;20040;-62
2022/01/30 15:56:38;;;;;;;9.15;1.90;;;;;;;;;;8295116;28;20025;-62
2022/01/30 16:00:38;;;;;;;8.25;1.60;;;;;;;;;;8292765;28;20040;-62
2022/01/30 16:04:38;;;;;;;7.43;1.57;;;;;;;;;;8295426;28;20017;-62
2022/01/30 16:08:41;;;;;;;7.57;2.88;;;;;;;;;;8291614;28;20763;-62
2022/01/30 16:16:44;;;;;;;11.70;2.58;;;;;;;;;;8293920;28;20084;-62
2022/01/30 16:20:45;;;;;;;6.15;1.70;;;;;;;;;;8290128;28;20385;-61
2022/01/30 16:24:45;;;;;;;10.27;2.00;;;;;;;;;;8295178;28;20032;-62
2022/01/30 16:28:45;;;;;;;12.50;2.80;;;;;;;;;;8294249;28;20350;-62
2022/01/30 16:32:48;;;;;;;14.00;2.50;;;;;;;;;;8290910;28;20030;-62
2022/01/30 16:36:48;;;;;;;11.00;2.88;;;;;;;;;;8291791;28;20033;-62
2022/01/30 16:40:48;;;;;;;10.73;2.67;;;;;;;;;;8291702;28;20394;-62
2022/01/30 16:44:48;;;;;;;13.38;3.20;;;;;;;;;;8292787;28;20487;-62
2022/01/30 16:48:49;;;;;;;11.82;3.92;;;;;;;;;;8291449;28;20034;-62
2022/01/30 16:52:49;;;;;;;20.77;6.93;;;;;;;;;;8291414;28;20018;-62
2022/01/30 16:56:49;;;;;;;14.00;4.60;;;;;;;;;;8292693;28;20028;-62
2022/01/30 17:00:49;;;;;;;19.55;5.55;;;;;;;;;;8288448;28;20127;-62
2022/01/30 17:04:49;;;;;;;14.90;4.18;;;;;;;;;;8287043;28;20153;-62
2022/01/30 17:08:54;;;;;;;10.25;3.25;;;;;;;;;;8295556;28;20029;-62
2022/01/30 17:16:56;;;;;;;9.30;2.63;;;;;;;;;;8290234;28;20563;-62
2022/01/30 17:20:56;;;;;;;11.52;2.75;;;;;;;;;;8290039;28;20034;-62
2022/01/30 17:24:57;;;;;;;7.38;2.20;;;;;;;;;;8292042;28;20391;-62
2022/01/30 17:28:57;;;;;;;8.15;2.40;;;;;;;;;;8288495;28;20549;-62
2022/01/30 17:32:57;;;;;;;12.80;3.28;;;;;;;;;;8291060;28;20029;-62
2022/01/30 17:36:57;;;;;;;17.77;4.88;;;;;;;;;;8289219;28;20028;-62
2022/01/30 17:40:58;;;;;;;20.25;6.50;;;;;;;;;;8293304;28;20017;-62
2022/01/30 17:44:58;;;;;;;17.70;5.78;;;;;;;;;;8290777;28;20045;-62
2022/01/30 17:48:58;;;;;;;13.63;3.40;;;;;;;;;;8289396;28;20554;-62
2022/01/30 17:52:58;;;;;;;16.05;3.80;;;;;;;;;;8290952;28;20575;-62
2022/01/30 17:57:00;;;;;;;17.40;3.17;;;;;;;;;;8291035;28;20464;-62
2022/01/30 18:01:00;;;;;;;10.48;2.55;;;;;;;;;;8288382;28;20323;-62
2022/01/30 18:05:00;;;;;;;12.90;4.75;;;;;;;;;;8289456;28;20033;-61
2022/01/30 18:09:01;;;;;;;19.48;5.28;;;;;;;;;;8287991;28;20017;-62
2022/01/30 18:13:02;;;;;;;11.65;3.65;;;;;;;;;;8288854;28;20080;-62
2022/01/30 18:17:03;;;;;;;7.75;2.45;;;;;;;;;;8294708;28;20044;-62
2022/01/30 18:21:03;;;;;;;10.15;2.67;;;;;;;;;;8289628;28;20024;-61
2022/01/30 18:25:03;;;;;;;7.30;2.30;;;;;;;;;;8289847;28;20036;-62
2022/01/30 18:29:04;;;;;;;12.25;2.50;;;;;;;;;;8286662;28;20044;-62
2022/01/30 18:33:04;;;;;;;13.98;2.78;;;;;;;;;;8289793;28;20470;-62
2022/01/30 18:37:12;;;;;;;7.65;1.98;;;;;;;;;;8288670;28;20120;-62
2022/01/30 18:41:12;;;;;;;9.07;1.85;;;;;;;;;;8283362;28;20505;-62
2022/01/30 18:45:13;;;;;;;11.13;1.90;;;;;;;;;;8288853;28;20033;-62
2022/01/30 18:49:13;;;;;;;9.25;2.13;;;;;;;;;;8290124;28;20256;-62
2022/01/30 18:53:14;;;;;;;8.80;1.87;;;;;;;;;;8288363;28;20029;-62
2022/01/30 18:57:17;;;;;;;7.80;2.00;;;;;;;;;;8287875;28;20951;-62
2022/01/30 19:01:17;;;;;;;9.38;2.03;;;;;;;;;;8288775;28;20115;-61
2022/01/30 19:05:17;;;;;;;6.72;1.85;;;;;;;;;;8287923;28;20033;-62
2022/01/30 19:09:18;;;;;;;5.65;1.77;;;;;;;;;;8289968;28;20420;-61
2022/01/30 19:13:20;;;;;;;9.20;1.90;;;;;;;;;;8287630;28;20025;-61
2022/01/30 19:17:20;;;;;;;11.98;2.28;;;;;;;;;;8288984;28;20045;-61
2022/01/30 19:21:20;;;;;;;9.13;2.08;;;;;;;;;;8288424;28;20029;-62
2022/01/30 19:25:21;;;;;;;13.98;2.47;;;;;;;;;;8290531;28;20026;-61
2022/01/30 19:29:21;;;;;;;5.45;1.58;;;;;;;;;;8291028;28;20025;-61
2022/01/30 19:33:22;;;;;;;9.98;2.10;;;;;;;;;;8295546;28;20589;-61
2022/01/30 19:37:22;;;;;;;12.63;3.15;;;;;;;;;;8293152;28;20518;-61
2022/01/30 19:41:23;;;;;;;11.75;2.00;;;;;;;;;;8290188;28;20030;-61
2022/01/30 19:45:23;;;;;;;15.13;2.35;;;;;;;;;;8294384;28;20071;-61
2022/01/30 19:49:24;;;;;;;13.02;2.58;;;;;;;;;;8291867;28;20493;-63
2022/01/30 19:53:24;;;;;;;7.90;2.30;;;;;;;;;;8293942;28;20028;-62
2022/01/30 19:57:24;;;;;;;9.55;2.33;;;;;;;;;;8293169;28;20486;-62
2022/01/30 20:01:25;;;;;;;13.95;2.17;;;;;;;;;;8292226;28;20563;-63
2022/01/30 20:05:25;;;;;;;10.35;2.38;;;;;;;;;;8292018;28;20032;-62
2022/01/30 20:09:25;;;;;;;13.07;3.10;;;;;;;;;;8287230;28;20022;-61
2022/01/30 20:13:25;;;;;;;9.38;2.13;;;;;;;;;;8290953;28;20548;-61
2022/01/30 20:17:26;;;;;;;10.13;2.60;;;;;;;;;;8292534;28;20771;-61
2022/01/30 20:21:27;;;;;;;6.27;1.93;;;;;;;;;;8291570;28;20280;-62
2022/01/30 20:25:27;;;;;;;11.82;2.75;;;;;;;;;;8291700;28;20731;-62
2022/01/30 20:29:28;;;;;;;11.38;2.47;;;;;;;;;;8289610;28;20025;-61
2022/01/30 20:33:28;;;;;;;12.32;2.03;;;;;;;;;;8289167;28;20034;-61
2022/01/30 20:37:28;;;;;;;16.10;2.50;;;;;;;;;;8289079;28;20280;-61
2022/01/30 20:41:28;;;;;;;8.80;2.15;;;;;;;;;;8290848;28;20271;-61
2022/01/30 20:45:29;;;;;;;12.90;3.17;;;;;;;;;;8288274;28;20096;-62
2022/01/30 20:49:29;;;;;;;15.60;2.77;;;;;;;;;;8289680;28;20561;-61
2022/01/30 20:53:29;;;;;;;12.75;3.00;;;;;;;;;;8292389;28;20336;-61
2022/01/30 20:57:29;;;;;;;10.10;2.88;;;;;;;;;;8290128;28;20037;-61
2022/01/30 21:01:30;;;;;;;7.80;2.33;;;;;;;;;;8292079;28;20032;-61
2022/01/30 21:05:32;;;;;;;12.50;2.97;;;;;;;;;;8289169;28;20456;-61
2022/01/30 21:09:38;;;;;;;10.18;2.47;;;;;;;;;;8290969;28;21102;-61
2022/01/30 21:13:39;;;;;;;10.00;2.38;;;;;;;;;;8286887;28;20602;-61
2022/01/30 21:17:39;;;;;;;11.40;2.30;;;;;;;;;;8290875;28;20695;-61
2022/01/30 21:21:39;;;;;;;13.55;1.85;;;;;;;;;;8288009;28;20025;-61
2022/01/30 21:25:43;;;;;;;8.32;1.73;;;;;;;;;;8290327;28;20021;-61
2022/01/30 21:29:44;;;;;;;10.98;2.20;;;;;;;;;;8288728;28;20376;-61
2022/01/30 21:33:47;;;;;;;9.52;2.20;;;;;;;;;;8289181;28;20120;-61
2022/01/30 21:37:47;;;;;;;12.30;2.95;;;;;;;;;;8289329;28;20025;-61
2022/01/30 21:41:47;;;;;;;6.15;1.92;;;;;;;;;;8287035;28;20514;-61
2022/01/30 21:45:48;;;;;;;8.20;2.40;;;;;;;;;;8286964;28;20114;-61
2022/01/30 21:49:48;;;;;;;11.55;2.30;;;;;;;;;;8289154;28;21002;-61
2022/01/30 21:53:48;;;;;;;9.60;2.55;;;;;;;;;;8287299;28;20776;-61
2022/01/30 21:57:48;;;;;;;12.65;2.65;;;;;;;;;;8289319;28;20037;-61
2022/01/30 22:01:48;;;;;;;11.52;2.70;;;;;;;;;;8285707;28;20423;-61
2022/01/30 22:05:49;;;;;;;8.30;2.38;;;;;;;;;;8289929;28;20099;-61
2022/01/30 22:09:51;;;;;;;14.23;3.22;;;;;;;;;;8290309;28;20014;-61
2022/01/30 22:14:00;;;;;;;13.98;2.35;;;;;;;;;;8287328;28;20022;-61
2022/01/30 22:18:05;;;;;;;11.23;2.33;;;;;;;;;;8287355;28;20041;-61
2022/01/30 22:22:05;;;;;;;9.10;2.05;;;;;;;;;;8285194;28;20583;-61
2022/01/30 22:26:05;;;;;;;10.95;2.97;;;;;;;;;;8288193;28;20711;-61
2022/01/30 22:30:11;;;;;;;6.93;2.28;;;;;;;;;;8288467;28;20155;-61
2022/01/30 22:34:12;;;;;;;9.20;2.63;;;;;;;;;;8286622;28;20316;-61
2022/01/30 22:38:12;;;;;;;6.40;2.05;;;;;;;;;;8288825;28;20247;-62
2022/01/30 22:42:12;;;;;;;10.25;2.42;;;;;;;;;;8288443;28;20245;-61
2022/01/30 22:46:12;;;;;;;10.80;2.35;;;;;;;;;;8285841;28;20513;-62
2022/01/30 22:50:13;;;;;;;8.13;1.95;;;;;;;;;;8288010;28;20084;-61
2022/01/30 22:54:14;;;;;;;11.18;2.47;;;;;;;;;;8288773;28;20445;-61
2022/01/30 22:58:14;;;;;;;12.48;2.45;;;;;;;;;;8286522;28;20643;-61
2022/01/30 23:02:14;;;;;;;12.25;2.90;;;;;;;;;;8286982;28;20560;-61
2022/01/30 23:06:15;;;;;;;10.57;2.30;;;;;;;;;;8292854;28;20143;-61
2022/01/30 23:10:15;;;;;;;8.18;2.10;;;;;;;;;;8294109;28;20113;-61
2022/01/30 23:14:15;;;;;;;13.25;2.72;;;;;;;;;;8296006;28;20026;-61
2022/01/30 23:18:16;;;;;;;9.95;2.72;;;;;;;;;;8296089;28;20268;-61
2022/01/30 23:22:16;;;;;;;12.13;2.30;;;;;;;;;;8294678;28;20033;-61
2022/01/30 23:26:17;;;;;;;12.88;2.58;;;;;;;;;;8293420;28;20260;-61
2022/01/30 23:30:18;;;;;;;6.32;2.67;;;;;;;;;;8294097;28;20577;-61
2022/01/30 23:34:18;;;;;;;6.82;1.95;;;;;;;;;;8294486;28;20025;-61
2022/01/30 23:38:25;;;;;;;10.27;2.25;;;;;;;;;;8293313;28;20508;-61
2022/01/30 23:42:32;;;;;;;12.63;2.40;;;;;;;;;;8292817;28;20707;-61
2022/01/30 23:46:33;;;;;;;11.98;2.60;;;;;;;;;;8294513;28;20064;-61
2022/01/30 23:50:33;;;;;;;8.82;2.78;;;;;;;;;;8290338;28;21319;-61
2022/01/30 23:54:33;;;;;;;12.25;2.88;;;;;;;;;;8295313;28;22277;-61
2022/01/30 23:58:33;;;;;;;9.53;3.13;;;;;;;;;;8293483;28;20021;-61
